Golden, CO

7:22 PM MDT on September 21, 2014 (GMT -0600)
Jeffco | Change Station
CLOSE
Current Station
Airport
Location: Broomfield,
Elevation: 5656 ft
Nearby Weather Stations

Elev 5656 ft 39.90 °N, 105.10 °W | Updated 34 minutes ago

Overcast
Overcast
66 °F
Feels Like 66 °F
N
8
Wind Variable Wind from West

Today
High -- | Low -- °F
--% Chance of Precip.
Yesterday
High -- | Low -- °F
Precip. -- in
6:47 AM 6:59 PM
Waning Crescent, 4% visible
Pressure 30.31 in
Visibility 20.0 miles
Clouds Scattered Clouds 9000 ft
Mostly Cloudy 17000 ft
Mostly Cloudy 22000 ft
Dew Point 48 °F
Humidity 52%
Rainfall 0.00 in
Snow Depth 0 in , 0 in , 0 in
UV 0 out of 12
Pollen 6.60 out of 12
Ozone Good
PM2.5 Moderate
Flu Activity Not available.
METAR KBJC 220048Z 27007KT 20SM SCT090 BKN170 BKN220 19/09 A3031

More Conditions Fewer Conditions

Pressure 30.31 in
Visibility 20.0 miles
Clouds Scattered Clouds 9000 ft
Mostly Cloudy 17000 ft
Mostly Cloudy 22000 ft
Dew Point 48 °F
Humidity 52%
Rainfall 0.00 in
Snow Depth 0 in , 0 in , 0 in
UV 0 out of 12
Pollen 6.60 out of 12
Ozone Good
PM2.5 Moderate
Flu Activity Not available.
METAR KBJC 220048Z 27007KT 20SM SCT090 BKN170 BKN220 19/09 A3031

More Conditions Fewer Conditions

Nowcast | as of 5:53 PM MDT on September 21, 2014

Scattered showers will push very slowly east off the foothills and into the I-25 urban corridor through this evening. Most of the showers will produce light rain...but in and near the foothills isolated showers may produce heavier rain with up to one half inch in 45 minutes.

×

10-Day Weather Forecast

Almanac

Astronomy

Sep. 21, 2014 Rise Set
Actual Time 6:47 AM MDT 6:59 PM MDT
Civil Twilight 6:20 AM MDT 7:26 PM MDT
Nautical Twilight 5:49 AM MDT 7:57 PM MDT
Astronomical Twilight 5:16 AM MDT 8:29 PM MDT
Moon 4:23 AM MDT (9/21) 5:36 PM MDT (9/21)
Length of Visible Light 13h 05m
Length of Day
12h 11m
Tomorrow will be 2m 36s shorter.
Waning Crescent, 4% of the Moon is Illuminated
Today
Waning Crescent
Sep 24
New
Oct 1
First Quarter
Oct 8
Full
Oct 15
Last Quarter

Today's Extremes

State Highs State Lows

Community

WunderPhotos

Upload Photos

1,755,342 photos uploaded!

WunderBlogs® & News

Nearby

Air Quality

  Air Quality AQ Index Pollutant
Yesterday Moderate
OZONE
Yesterday Good
PM10
Current Moderate
PM2.5
Current Good
OZONE
Sunday Good
OZONE
Sunday Good
PM2.5
Monday Moderate
PM2.5
Monday Good
OZONE

Snow Depth

Station Depth Elevation
Buffalo Park 0 in 9240 ft
Brumley 0 in 10600 ft
Jackwhacker Gulch 0 in 10960 ft
Dry Lake 0 in 8400 ft
Roach 0 in 9700 ft

Earthquake Activity

City Distance Mag. Time & Date
No recent earthquake activity has been reported nearby.
Minimum magnitude displayed is 2.5.

Coastal Water Temperatures

Place Temperature
No Stations Reporting

Nearby Weather Stations